PWSweather.com
Personal Weather Stations
Station Observations

SkegnessGB

Lat: 53.147585, Lon: 0.345774

Elevation: 18

Station Type: Fine Offset WH3080

http://www.skegnessweather.info/

Latest ConditionsUpdated 3:10:00 PM GMT Friday, Sep 22, 2017
Currently Today's Max Today's Min Today's Average
Temperature 64.9°F18.3°C 67.3°F19.6°C 43.0°F6.1°C 53.6°F12.0°C
Dew Point 51.6°F10.9°C 58.1°F14.5°C 43.0°F6.1°C 49.0°F9.4°C
Winds 7.6 mph S12.2 kmh S 10.1 mph N16.3 kmh N - 3.2 mph 5.1 kmh
Wind Gusts 10.8 mph17.4 kmh 12.5 mph20.1 kmh - -
Humidity 62% 100% 60% 87%
Pressure 30.14 in1020.7 mb 30.15 in1021.0 mb 30.09 in1019.0 mb -
Precipitation - 0.01 in0.3 mm - -
Hour Temp Dew Point Humidity Winds Wind Gusts Pressure Precip Precip Rate Daily Precip Total
03:10 PM 64.9°F18.3°C 51.6°F10.9°C 62% 7.6 mph S12.2 kmh S 10.8 mph17.4 kmh 30.14 in1020.7 mb 0.00 in0.0 mm 0.00 in0.0 mm 0.01 in0.3 mm
03:00 PM 65.5°F18.6°C 52.6°F11.4°C 63% 8.1 mph SSW13.0 kmh SSW 9.1 mph14.6 kmh 30.14 in1020.7 mb 0.00 in0.0 mm 0.00 in0.0 mm 0.01 in0.3 mm
02:50 PM 65.7°F18.7°C 52.7°F11.5°C 63% 8.8 mph S14.2 kmh S 11.8 mph19.0 kmh 30.14 in1020.7 mb 0.00 in0.0 mm 0.00 in0.0 mm 0.01 in0.3 mm
02:40 PM 65.3°F18.5°C 52.0°F11.1°C 62% 9.8 mph S15.8 kmh S 11.8 mph19.0 kmh 30.13 in1020.3 mb 0.00 in0.0 mm 0.00 in0.0 mm 0.01 in0.3 mm
02:30 PM 65.8°F18.8°C 52.9°F11.6°C 63% 7.2 mph S11.6 kmh S 8.4 mph13.5 kmh 30.14 in1020.7 mb 0.00 in0.0 mm 0.00 in0.0 mm 0.01 in0.3 mm
02:20 PM 65.3°F18.5°C 52.4°F11.3°C 63% 8.4 mph S13.5 kmh S 10.1 mph16.3 kmh 30.14 in1020.7 mb 0.00 in0.0 mm 0.00 in0.0 mm 0.01 in0.3 mm
02:10 PM 64.4°F18.0°C 52.0°F11.1°C 64% 8.8 mph WSW14.2 kmh WSW 8.4 mph13.5 kmh 30.14 in1020.7 mb 0.00 in0.0 mm 0.00 in0.0 mm 0.01 in0.3 mm
02:00 PM 64.9°F18.3°C 52.1°F11.2°C 63% 9.9 mph SSE15.9 kmh SSE 12.5 mph20.1 kmh 30.14 in1020.7 mb 0.00 in0.0 mm 0.00 in0.0 mm 0.01 in0.3 mm
01:50 PM 64.8°F18.2°C 51.5°F10.8°C 62% 8.6 mph S13.8 kmh S 10.8 mph17.4 kmh 30.14 in1020.7 mb 0.00 in0.0 mm 0.00 in0.0 mm 0.01 in0.3 mm
01:40 PM 64.9°F18.3°C 51.6°F10.9°C 62% 8.1 mph S13.0 kmh S 11.8 mph19.0 kmh 30.14 in1020.7 mb 0.00 in0.0 mm 0.00 in0.0 mm 0.01 in0.3 mm
01:30 PM 66.0°F18.9°C 52.2°F11.2°C 61% 8.0 mph SSE12.9 kmh SSE 10.1 mph16.3 kmh 30.14 in1020.7 mb 0.00 in0.0 mm 0.00 in0.0 mm 0.01 in0.3 mm
01:20 PM 65.1°F18.4°C 51.8°F11.0°C 62% 8.2 mph SSE13.2 kmh SSE 10.1 mph16.3 kmh 30.14 in1020.7 mb 0.00 in0.0 mm 0.00 in0.0 mm 0.01 in0.3 mm
01:10 PM 65.7°F18.7°C 51.4°F10.8°C 60% 8.3 mph SSW13.4 kmh SSW 10.8 mph17.4 kmh 30.14 in1020.7 mb 0.00 in0.0 mm 0.00 in0.0 mm 0.01 in0.3 mm
01:00 PM 66.4°F19.1°C 52.1°F11.2°C 60% 7.1 mph S11.4 kmh S 9.1 mph14.6 kmh 30.14 in1020.7 mb 0.00 in0.0 mm 0.00 in0.0 mm 0.01 in0.3 mm
12:50 PM 66.4°F19.1°C 52.1°F11.2°C 60% 8.3 mph SSW13.4 kmh SSW 12.5 mph20.1 kmh 30.14 in1020.7 mb 0.00 in0.0 mm 0.00 in0.0 mm 0.01 in0.3 mm
12:40 PM 66.4°F19.1°C 52.5°F11.4°C 61% 8.3 mph S13.4 kmh S 12.5 mph20.1 kmh 30.14 in1020.7 mb 0.00 in0.0 mm 0.00 in0.0 mm 0.01 in0.3 mm
12:30 PM 66.4°F19.1°C 53.0°F11.7°C 62% 8.8 mph S14.2 kmh S 12.5 mph20.1 kmh 30.14 in1020.7 mb 0.00 in0.0 mm 0.00 in0.0 mm 0.01 in0.3 mm
12:20 PM 66.4°F19.1°C 54.3°F12.4°C 65% 8.0 mph S12.9 kmh S 10.8 mph17.4 kmh 30.14 in1020.7 mb 0.00 in0.0 mm 0.00 in0.0 mm 0.01 in0.3 mm
12:10 PM 65.5°F18.6°C 53.0°F11.7°C 64% 10.1 mph N16.3 kmh N 9.1 mph14.6 kmh 30.14 in1020.7 mb 0.00 in0.0 mm 0.00 in0.0 mm 0.01 in0.3 mm
12:00 PM 67.3°F19.6°C 54.3°F12.4°C 63% 6.0 mph SW9.7 kmh SW 9.1 mph14.6 kmh 30.14 in1020.7 mb 0.00 in0.0 mm 0.00 in0.0 mm 0.01 in0.3 mm
11:50 AM 66.6°F19.2°C 53.2°F11.8°C 62% 7.5 mph SW12.1 kmh SW 10.1 mph16.3 kmh 30.14 in1020.7 mb 0.00 in0.0 mm 0.00 in0.0 mm 0.01 in0.3 mm
11:40 AM 66.4°F19.1°C 53.9°F12.2°C 64% 6.9 mph S11.1 kmh S 8.4 mph13.5 kmh 30.14 in1020.7 mb 0.00 in0.0 mm 0.00 in0.0 mm 0.01 in0.3 mm
11:30 AM 65.7°F18.7°C 52.7°F11.5°C 63% 7.5 mph SSE12.1 kmh SSE 11.8 mph19.0 kmh 30.14 in1020.7 mb 0.00 in0.0 mm 0.00 in0.0 mm 0.01 in0.3 mm
11:20 AM 66.2°F19.0°C 52.8°F11.6°C 62% 5.5 mph SE8.9 kmh SE 7.6 mph12.2 kmh 30.14 in1020.7 mb 0.00 in0.0 mm 0.00 in0.0 mm 0.01 in0.3 mm
11:10 AM 65.8°F18.8°C 52.9°F11.6°C 63% 5.8 mph SW9.3 kmh SW 6.6 mph10.6 kmh 30.14 in1020.7 mb 0.00 in0.0 mm 0.00 in0.0 mm 0.01 in0.3 mm
11:00 AM 65.1°F18.4°C 53.1°F11.7°C 65% 7.0 mph SE11.3 kmh SE 10.8 mph17.4 kmh 30.14 in1020.7 mb 0.00 in0.0 mm 0.00 in0.0 mm 0.01 in0.3 mm
10:50 AM 64.9°F18.3°C 53.3°F11.8°C 66% 6.2 mph SW10.0 kmh SW 7.6 mph12.2 kmh 30.15 in1021.0 mb 0.00 in0.0 mm 0.00 in0.0 mm 0.01 in0.3 mm
10:40 AM 64.9°F18.3°C 54.1°F12.3°C 68% 5.9 mph SW9.5 kmh SW 9.1 mph14.6 kmh 30.15 in1021.0 mb 0.00 in0.0 mm 0.00 in0.0 mm 0.01 in0.3 mm
10:30 AM 64.4°F18.0°C 53.6°F12.0°C 68% 6.1 mph SE9.8 kmh SE 7.6 mph12.2 kmh 30.15 in1021.0 mb 0.00 in0.0 mm 0.00 in0.0 mm 0.01 in0.3 mm
10:20 AM 64.0°F17.8°C 55.2°F12.9°C 73% 5.6 mph WSW9.0 kmh WSW 10.1 mph16.3 kmh 30.15 in1021.0 mb 0.00 in0.0 mm 0.00 in0.0 mm 0.01 in0.3 mm
10:10 AM 63.5°F17.5°C 55.1°F12.8°C 74% 6.3 mph WNW10.1 kmh WNW 9.1 mph14.6 kmh 30.14 in1020.7 mb 0.00 in0.0 mm 0.00 in0.0 mm 0.01 in0.3 mm
10:00 AM 63.9°F17.7°C 55.8°F13.2°C 75% 4.4 mph S7.1 kmh S 4.2 mph6.8 kmh 30.14 in1020.7 mb 0.00 in0.0 mm 0.00 in0.0 mm 0.01 in0.3 mm
09:50 AM 63.7°F17.6°C 56.0°F13.3°C 76% 3.9 mph S6.3 kmh S 4.9 mph7.9 kmh 30.14 in1020.7 mb 0.00 in0.0 mm 0.00 in0.0 mm 0.01 in0.3 mm
09:40 AM 62.2°F16.8°C 57.4°F14.1°C 84% 2.9 mph WSW4.7 kmh WSW 4.9 mph7.9 kmh 30.14 in1020.7 mb 0.00 in0.0 mm 0.00 in0.0 mm 0.01 in0.3 mm
09:30 AM 60.1°F15.6°C 58.1°F14.5°C 93% 2.8 mph S4.5 kmh S 4.2 mph6.8 kmh 30.14 in1020.7 mb 0.00 in0.0 mm 0.00 in0.0 mm 0.01 in0.3 mm
09:20 AM 55.4°F13.0°C 55.4°F13.0°C 100% 1.9 mph SSW3.1 kmh SSW 3.4 mph5.5 kmh 30.14 in1020.7 mb 0.00 in0.0 mm 0.00 in0.0 mm 0.01 in0.3 mm
09:10 AM 52.7°F11.5°C 52.7°F11.5°C 100% 2.0 mph SW3.2 kmh SW 3.4 mph5.5 kmh 30.15 in1021.0 mb 0.00 in0.0 mm 0.00 in0.0 mm 0.01 in0.3 mm
09:00 AM 52.2°F11.2°C 52.2°F11.2°C 100% 2.2 mph SW3.5 kmh SW 4.2 mph6.8 kmh 30.15 in1021.0 mb 0.00 in0.0 mm 0.00 in0.0 mm 0.01 in0.3 mm
08:50 AM 51.4°F10.8°C 51.4°F10.8°C 100% 2.1 mph SSW3.4 kmh SSW 3.4 mph5.5 kmh 30.15 in1021.0 mb 0.00 in0.0 mm 0.00 in0.0 mm 0.01 in0.3 mm
08:40 AM 50.9°F10.5°C 50.9°F10.5°C 100% 1.8 mph SSW2.9 kmh SSW 3.4 mph5.5 kmh 30.14 in1020.7 mb 0.00 in0.0 mm 0.00 in0.0 mm 0.01 in0.3 mm
08:30 AM 50.2°F10.1°C 50.2°F10.1°C 100% 1.5 mph SW2.4 kmh SW 3.4 mph5.5 kmh 30.14 in1020.7 mb 0.00 in0.0 mm 0.00 in0.0 mm 0.01 in0.3 mm
08:20 AM 49.5°F9.7°C 49.5°F9.7°C 100% 2.0 mph S3.2 kmh S 4.2 mph6.8 kmh 30.15 in1021.0 mb 0.01 in0.3 mm 0.00 in0.0 mm 0.01 in0.3 mm
08:10 AM 48.4°F9.1°C 48.4°F9.1°C 100% 1.1 mph S1.8 kmh S 1.7 mph2.7 kmh 30.14 in1020.7 mb 0.01 in0.3 mm 0.00 in0.0 mm 0.01 in0.3 mm
08:00 AM 48.4°F9.1°C 48.4°F9.1°C 100% 1.3 mph SW2.1 kmh SW 3.4 mph5.5 kmh 30.14 in1020.7 mb 0.01 in0.3 mm 0.00 in0.0 mm 0.01 in0.3 mm
07:50 AM 47.8°F8.8°C 47.8°F8.8°C 100% 1.4 mph SW2.3 kmh SW 2.5 mph4.0 kmh 30.14 in1020.7 mb 0.01 in0.3 mm 0.00 in0.0 mm 0.01 in0.3 mm
07:40 AM 46.9°F8.3°C 46.9°F8.3°C 100% 1.0 mph SSW1.6 kmh SSW 1.7 mph2.7 kmh 30.14 in1020.7 mb 0.01 in0.3 mm 0.00 in0.0 mm 0.01 in0.3 mm
07:30 AM 46.4°F8.0°C 46.4°F8.0°C 100% 1.3 mph SSW2.1 kmh SSW 2.5 mph4.0 kmh 30.14 in1020.7 mb 0.01 in0.3 mm 0.06 in1.5 mm 0.01 in0.3 mm
07:20 AM 45.7°F7.6°C 45.7°F7.6°C 100% 1.1 mph SSW1.8 kmh SSW 1.7 mph2.7 kmh 30.14 in1020.7 mb 0.00 in0.0 mm 0.00 in0.0 mm 0.00 in0.0 mm
07:10 AM 45.1°F7.3°C 45.1°F7.3°C 100% 1.5 mph SSW2.4 kmh SSW 2.5 mph4.0 kmh 30.14 in1020.7 mb 0.00 in0.0 mm 0.00 in0.0 mm 0.00 in0.0 mm
07:00 AM 44.2°F6.8°C 44.2°F6.8°C 100% 0.9 mph SW1.4 kmh SW 1.7 mph2.7 kmh 30.14 in1020.7 mb 0.00 in0.0 mm 0.00 in0.0 mm 0.00 in0.0 mm
06:50 AM 43.7°F6.5°C 43.7°F6.5°C 100% 1.0 mph SSW1.6 kmh SSW 1.7 mph2.7 kmh 30.13 in1020.3 mb 0.00 in0.0 mm 0.00 in0.0 mm 0.00 in0.0 mm
06:40 AM 43.2°F6.2°C 43.2°F6.2°C 100% 1.0 mph S1.6 kmh S 1.7 mph2.7 kmh 30.14 in1020.7 mb 0.00 in0.0 mm 0.00 in0.0 mm 0.00 in0.0 mm
06:30 AM 43.0°F6.1°C 43.0°F6.1°C 100% 0.9 mph S1.4 kmh S 1.7 mph2.7 kmh 30.13 in1020.3 mb 0.00 in0.0 mm 0.00 in0.0 mm 0.00 in0.0 mm
06:20 AM 43.2°F6.2°C 43.2°F6.2°C 100% 0.5 mph S0.8 kmh S 1.7 mph2.7 kmh 30.13 in1020.3 mb 0.00 in0.0 mm 0.00 in0.0 mm 0.00 in0.0 mm
06:10 AM 43.2°F6.2°C 43.2°F6.2°C 100% 1.0 mph S1.6 kmh S 1.7 mph2.7 kmh 30.13 in1020.3 mb 0.00 in0.0 mm 0.00 in0.0 mm 0.00 in0.0 mm
06:00 AM 43.3°F6.3°C 43.3°F6.3°C 100% 0.3 mph S0.5 kmh S 1.7 mph2.7 kmh 30.12 in1020.0 mb 0.00 in0.0 mm 0.00 in0.0 mm 0.00 in0.0 mm
05:50 AM 43.3°F6.3°C 43.3°F6.3°C 100% 0.1 mph S0.2 kmh S 1.7 mph2.7 kmh 30.12 in1020.0 mb 0.00 in0.0 mm 0.00 in0.0 mm 0.00 in0.0 mm
05:40 AM 43.5°F6.4°C 43.5°F6.4°C 100% 0.5 mph S0.8 kmh S 1.7 mph2.7 kmh 30.12 in1020.0 mb 0.00 in0.0 mm 0.00 in0.0 mm 0.00 in0.0 mm
05:30 AM 43.5°F6.4°C 43.5°F6.4°C 100% Calm Calm 0.7 mph1.1 kmh 30.11 in1019.6 mb 0.00 in0.0 mm 0.00 in0.0 mm 0.00 in0.0 mm
05:20 AM 43.7°F6.5°C 43.7°F6.5°C 100% 0.5 mph SSW0.8 kmh SSW 1.7 mph2.7 kmh 30.11 in1019.6 mb 0.00 in0.0 mm 0.00 in0.0 mm 0.00 in0.0 mm
05:10 AM 43.9°F6.6°C 43.9°F6.6°C 100% 0.5 mph S0.8 kmh S 1.7 mph2.7 kmh 30.11 in1019.6 mb 0.00 in0.0 mm 0.00 in0.0 mm 0.00 in0.0 mm
05:00 AM 44.1°F6.7°C 44.1°F6.7°C 100% 0.7 mph S1.1 kmh S 1.7 mph2.7 kmh 30.11 in1019.6 mb 0.00 in0.0 mm 0.00 in0.0 mm 0.00 in0.0 mm
04:50 AM 43.9°F6.6°C 43.9°F6.6°C 100% 0.5 mph SSW0.8 kmh SSW 1.7 mph2.7 kmh 30.11 in1019.6 mb 0.00 in0.0 mm 0.00 in0.0 mm 0.00 in0.0 mm
04:40 AM 43.7°F6.5°C 43.7°F6.5°C 100% Calm Calm 0.7 mph1.1 kmh 30.11 in1019.6 mb 0.00 in0.0 mm 0.00 in0.0 mm 0.00 in0.0 mm
04:30 AM 43.9°F6.6°C 43.9°F6.6°C 100% Calm Calm 0.7 mph1.1 kmh 30.11 in1019.6 mb 0.00 in0.0 mm 0.00 in0.0 mm 0.00 in0.0 mm
04:20 AM 44.1°F6.7°C 44.1°F6.7°C 100% 0.4 mph SW0.6 kmh SW 1.7 mph2.7 kmh 30.11 in1019.6 mb 0.00 in0.0 mm 0.00 in0.0 mm 0.00 in0.0 mm
04:10 AM 44.2°F6.8°C 44.2°F6.8°C 100% Calm Calm 0.7 mph1.1 kmh 30.11 in1019.6 mb 0.00 in0.0 mm 0.00 in0.0 mm 0.00 in0.0 mm
04:00 AM 44.4°F6.9°C 44.4°F6.9°C 100% 0.3 mph SW0.5 kmh SW 0.7 mph1.1 kmh 30.10 in1019.3 mb 0.00 in0.0 mm 0.00 in0.0 mm 0.00 in0.0 mm
03:50 AM 44.6°F7.0°C 44.6°F7.0°C 100% 0.1 mph SW0.2 kmh SW 0.7 mph1.1 kmh 30.11 in1019.6 mb 0.00 in0.0 mm 0.00 in0.0 mm 0.00 in0.0 mm
03:40 AM 44.6°F7.0°C 44.6°F7.0°C 100% Calm Calm 0.7 mph1.1 kmh 30.10 in1019.3 mb 0.00 in0.0 mm 0.00 in0.0 mm 0.00 in0.0 mm
03:30 AM 44.6°F7.0°C 44.6°F7.0°C 100% Calm Calm 0.7 mph1.1 kmh 30.11 in1019.6 mb 0.00 in0.0 mm 0.00 in0.0 mm 0.00 in0.0 mm
03:20 AM 45.0°F7.2°C 45.0°F7.2°C 100% 0.3 mph SSW0.5 kmh SSW 0.7 mph1.1 kmh 30.11 in1019.6 mb 0.00 in0.0 mm 0.00 in0.0 mm 0.00 in0.0 mm
03:10 AM 45.1°F7.3°C 45.1°F7.3°C 100% 0.6 mph SSW1.0 kmh SSW 0.7 mph1.1 kmh 30.11 in1019.6 mb 0.00 in0.0 mm 0.00 in0.0 mm 0.00 in0.0 mm
03:00 AM 45.5°F7.5°C 45.5°F7.5°C 100% 0.3 mph S0.5 kmh S 1.7 mph2.7 kmh 30.11 in1019.6 mb 0.00 in0.0 mm 0.00 in0.0 mm 0.00 in0.0 mm
02:50 AM 45.5°F7.5°C 45.5°F7.5°C 100% 0.5 mph SW0.8 kmh SW 1.7 mph2.7 kmh 30.11 in1019.6 mb 0.00 in0.0 mm 0.00 in0.0 mm 0.00 in0.0 mm
02:40 AM 45.7°F7.6°C 45.7°F7.6°C 100% Calm Calm 0.7 mph1.1 kmh 30.11 in1019.6 mb 0.00 in0.0 mm 0.00 in0.0 mm 0.00 in0.0 mm
02:30 AM 45.7°F7.6°C 45.7°F7.6°C 100% Calm Calm 0.7 mph1.1 kmh 30.11 in1019.6 mb 0.00 in0.0 mm 0.00 in0.0 mm 0.00 in0.0 mm
02:20 AM 46.0°F7.8°C 46.0°F7.8°C 100% Calm Calm 0.7 mph1.1 kmh 30.11 in1019.6 mb 0.00 in0.0 mm 0.00 in0.0 mm 0.00 in0.0 mm
02:10 AM 46.4°F8.0°C 46.4°F8.0°C 100% 0.1 mph SW0.2 kmh SW 1.7 mph2.7 kmh 30.11 in1019.6 mb 0.00 in0.0 mm 0.00 in0.0 mm 0.00 in0.0 mm
02:00 AM 46.6°F8.1°C 46.6°F8.1°C 100% Calm Calm 0.7 mph1.1 kmh 30.11 in1019.6 mb 0.00 in0.0 mm 0.00 in0.0 mm 0.00 in0.0 mm
01:50 AM 46.9°F8.3°C 46.9°F8.3°C 100% Calm Calm 0.7 mph1.1 kmh 30.11 in1019.6 mb 0.00 in0.0 mm 0.00 in0.0 mm 0.00 in0.0 mm
01:40 AM 47.3°F8.5°C 47.3°F8.5°C 100% 0.5 mph SW0.8 kmh SW 1.7 mph2.7 kmh 30.11 in1019.6 mb 0.00 in0.0 mm 0.00 in0.0 mm 0.00 in0.0 mm
01:30 AM 47.5°F8.6°C 47.5°F8.6°C 100% 0.7 mph SW1.1 kmh SW 1.7 mph2.7 kmh 30.10 in1019.3 mb 0.00 in0.0 mm 0.00 in0.0 mm 0.00 in0.0 mm
01:20 AM 47.7°F8.7°C 47.7°F8.7°C 100% 0.6 mph SW1.0 kmh SW 1.7 mph2.7 kmh 30.10 in1019.3 mb 0.00 in0.0 mm 0.00 in0.0 mm 0.00 in0.0 mm
01:10 AM 48.0°F8.9°C 48.0°F8.9°C 100% 0.7 mph SW1.1 kmh SW 0.7 mph1.1 kmh 30.10 in1019.3 mb 0.00 in0.0 mm 0.00 in0.0 mm 0.00 in0.0 mm
01:00 AM 48.2°F9.0°C 48.2°F9.0°C 100% 0.6 mph SW1.0 kmh SW 1.7 mph2.7 kmh 30.10 in1019.3 mb 0.00 in0.0 mm 0.00 in0.0 mm 0.00 in0.0 mm
12:50 AM 48.4°F9.1°C 48.4°F9.1°C 100% 1.1 mph SW1.8 kmh SW 2.5 mph4.0 kmh 30.10 in1019.3 mb 0.00 in0.0 mm 0.00 in0.0 mm 0.00 in0.0 mm
12:40 AM 48.7°F9.3°C 48.7°F9.3°C 100% 0.4 mph WSW0.6 kmh WSW 1.7 mph2.7 kmh 30.10 in1019.3 mb 0.00 in0.0 mm 0.00 in0.0 mm 0.00 in0.0 mm
12:30 AM 49.1°F9.5°C 49.1°F9.5°C 100% 0.5 mph SW0.8 kmh SW 1.7 mph2.7 kmh 30.10 in1019.3 mb 0.00 in0.0 mm 0.00 in0.0 mm 0.00 in0.0 mm
12:20 AM 49.3°F9.6°C 49.3°F9.6°C 100% 0.8 mph SW1.3 kmh SW 1.7 mph2.7 kmh 30.09 in1019.0 mb 0.00 in0.0 mm 0.00 in0.0 mm 0.00 in0.0 mm
12:10 AM 49.6°F9.8°C 49.6°F9.8°C 100% 1.4 mph NE2.3 kmh NE 2.5 mph4.0 kmh 30.09 in1019.0 mb 0.00 in0.0 mm 0.00 in0.0 mm 0.00 in0.0 mm
12:00 AM 49.6°F9.8°C 49.6°F9.8°C 100% 1.9 mph SSW3.1 kmh SSW 2.5 mph4.0 kmh 30.09 in1019.0 mb 0.00 in0.0 mm 0.00 in0.0 mm 0.00 in0.0 mm